首页
METAR-TAF:

METAR-TAF

机场 :

阿伯茲福德國際機場

亞博斯福, 不列颠哥伦比亚, 加拿大

纬度: 49-02N, 经度: 122-22W, 海拔: 54米

当前天气观测

该预报发布于56分钟前的19:00 UTC
风速16节,风向西南,有时为22节阵风
温度 12°C
湿度 67%
气压 1019 hPa
能見度: 24.1公里
散云层高于3500英尺, 塔状积云.
多云层高于5500英尺

METAR: CYXX 181900Z 22016G22KT 15SM SCT035TCU BKN055 12/06 A3010 RMK TCU3SC3 SLP196

时间: 12:56 (19:56 UTC)

预报

该预报发布于2小时和16分钟前的17:40 UTC
预报有效从18日的 18点(UTC)到 19日的 18点(UTC)
风速12节,风向南转西南,有时为22节阵风
能見度: 10公里
散云层高于4000英尺
多云层高于8000英尺
短暂存在
从 18日的 18点(UTC)到 19日的 06点(UTC)
能見度: 10公里
多云层高于4000英尺
阴天层高于8000英尺
小阵雨
成为
从 18日的 22点(UTC)到 18日的 24点(UTC)
风速3节,风向多变
从 19日的 0600点(UTC)
风速3节,风向多变
能見度: 10公里
多云层高于4000英尺
短暂存在
从 19日的 06点(UTC)到 19日的 12点(UTC)
能見度: 10公里
多云层高于2000英尺
小阵雨
从 19日的 1200点(UTC)
风速3节,风向多变
能見度: 10公里
散云层高于600英尺
阴天层高于2000英尺

TAF: CYXX 181740Z 1818/1918 20012G22KT P6SM SCT040 BKN080 TEMPO 1818/1906 P6SM -SHRA BKN040 OVC080 BECMG 1822/1824 VRB03KT FM190600 VRB03KT P6SM BKN040 TEMPO 1906/1912 P6SM -SHRA BKN020 FM191200 VRB03KT P6SM SCT006 OVC020 RMK NXT FCST BY 190000Z

超过4000个机场的气象观测和天气预报(METAR&TAF报告)。

可查询的气象台以黄色和红色小点在地图上表示。

将鼠标移到小点上方,可查看气象台名称。

然后点击查看天气观测和预报。

如需切换地图:点击带黑十字的绿色按钮放大地图;点击带横线的绿色按钮缩小地图;或者点击绿色箭头查看邻近地区的地图。


METAR-TAF: